Terminal Aerodrome Forecast
Issued by NWS Chicago, IL

Home | Current Version | Previous Version | Graphics & Text | Print | Product List | Glossary On
Versions: 1 2 3 4 5 6 7 8 9 10 11 12 13 14 15 16 17 18 19 20 21 22 23 24 25 26 27 28 29 30 31 32 33 34
000
FTUS43 KLOT 150500
TAFRFD
TAF
KRFD 150536Z 1506/1606 17007KT 3/4SM -DZ BR OVC002
      TEMPO 1507/1511 1/2SM FG
     FM151300 17011KT 2SM BR OVC004
     FM151600 15014KT 6SM BR OVC012
      TEMPO 1517/1521 -SHRA
     FM152100 14013KT 4SM BR VCSH OVC009
     FM160100 13010KT 2SM -DZRA BR OVC006
     FM160500 VRB04KT 3/4SM -DZRA BR OVC004=

USA.gov is the U.S. government's official web portal to all federal, state and local government web resources and services.